Howells, New York
Current Conditions -  °F | °C
As of 10:54 AM on Tuesday 21 Oct 2014 (Local Time) from KMGJ Reporting Station
Overcast Overcast  
Wind Chill: 50°   Ceiling: 4800
Heat Index: 50°   Visibility: 10mi
Dew Point: 47°   Wind: 5mph
Humidity: 89%   Direction: 40°NE
Pressure: 29.91"   Gusts: NA
Location:  41.48°N, 74.47°W
Report Text: KMGJ 211454Z AUTO 04004KT 10SM FEW021 OVC048 10/08 A2991 RMK AO2 SLP131 60008 T01000083 50006 TSNO
Loading
Personal Weather Stations






























Interactive Weather Map
Tropical Storm Tracking
New forecast layout! Learn more

10-Day Weather Forecast

Advertisements
Track Severe Weather on mobile